Terminal Aerodrome Forecast
Issued by NWS

Home | Current Version | Previous Version | Text Only | Print | Product List | Glossary Off
Versions: 1 2 3 4 5 6 7 8 9 10 11 12 13 14

000
FTUS43 KICT 300500
TAFCNU
TAF
KCNU 300520Z 3006/0106 VRB05KT P6SM SKC
      TEMPO 3010/3013 3SM BR
     FM301400 18010KT P6SM SCT250
     FM301700 19012KT P6SM SCT060=

USA.gov is the U.S. government's official web portal to all federal, state and local government web resources and services.